createdAt,value
2023-02-22T00:02:01.768Z,998.48
2023-02-22T00:07:46.148Z,998.42
2023-02-22T00:13:30.394Z,998.38
2023-02-22T00:19:14.139Z,998.37
2023-02-22T00:24:57.891Z,998.39
2023-02-22T00:30:41.880Z,998.33
2023-02-22T00:36:25.841Z,998.35
2023-02-22T00:42:10.760Z,998.29
2023-02-22T00:47:54.895Z,998.21
2023-02-22T00:53:38.528Z,998.13
2023-02-22T00:59:22.519Z,998.03
2023-02-22T01:05:06.639Z,997.96
2023-02-22T01:10:50.530Z,997.89
2023-02-22T01:16:34.381Z,997.83
2023-02-22T01:22:18.392Z,997.81
2023-02-22T01:28:02.554Z,997.72
2023-02-22T01:33:46.308Z,997.73
2023-02-22T01:39:30.122Z,997.72
2023-02-22T01:45:25.012Z,997.72
2023-02-22T01:51:10.126Z,997.65
2023-02-22T01:56:59.010Z,997.59
2023-02-22T02:02:44.750Z,997.51
2023-02-22T02:08:31.785Z,997.45
2023-02-22T02:14:15.537Z,997.42
2023-02-22T02:20:04.142Z,997.36
2023-02-22T02:25:58.984Z,997.3
2023-02-22T02:31:54.405Z,997.17
2023-02-22T02:37:43.540Z,997.1
2023-02-22T02:43:30.577Z,997.06
2023-02-22T02:49:17.766Z,996.92
2023-02-22T02:55:01.654Z,996.86
2023-02-22T03:00:46.100Z,996.83
2023-02-22T03:06:38.954Z,996.72
2023-02-22T03:12:28.814Z,996.62
2023-02-22T03:18:16.468Z,996.59
2023-02-22T03:24:05.699Z,996.52
2023-02-22T03:29:51.879Z,996.46
2023-02-22T03:35:38.858Z,996.43
2023-02-22T03:41:24.034Z,996.44
2023-02-22T03:47:10.507Z,996.32
2023-02-22T03:52:54.376Z,996.25
2023-02-22T03:58:41.629Z,996.15
2023-02-22T04:04:26.004Z,996.06
2023-02-22T04:10:09.978Z,996.01
2023-02-22T04:15:53.931Z,995.98
2023-02-22T04:21:37.835Z,995.88
2023-02-22T04:27:21.729Z,995.82
2023-02-22T04:33:05.379Z,995.79
2023-02-22T04:38:49.405Z,995.75
2023-02-22T04:44:33.002Z,995.72
2023-02-22T04:50:17.052Z,995.73
2023-02-22T04:56:02.705Z,995.74
2023-02-22T05:01:46.613Z,995.71
2023-02-22T05:07:30.264Z,995.66
2023-02-22T05:13:14.024Z,995.61
2023-02-22T05:18:57.985Z,995.59
2023-02-22T05:24:41.922Z,995.57
2023-02-22T05:30:27.651Z,995.57
2023-02-22T05:36:12.018Z,995.54
2023-02-22T05:41:55.543Z,995.5
2023-02-22T05:47:40.048Z,995.54
2023-02-22T05:53:24.759Z,995.52
2023-02-22T05:59:08.398Z,995.48
2023-02-22T06:04:52.233Z,995.47
2023-02-22T06:10:35.984Z,995.32
2023-02-22T06:16:19.690Z,995.49
2023-02-22T06:22:03.452Z,995.5
2023-02-22T06:27:47.368Z,995.47
2023-02-22T06:33:31.428Z,995.39
2023-02-22T06:39:15.447Z,995.34
2023-02-22T06:44:59.412Z,995.4
2023-02-22T06:50:43.547Z,995.38
2023-02-22T06:56:28.304Z,995.41
2023-02-22T07:02:12.723Z,995.46
2023-02-22T07:08:01.483Z,995.47
2023-02-22T07:13:51.411Z,995.43
2023-02-22T07:19:35.277Z,995.56
2023-02-22T07:25:19.697Z,995.52
2023-02-22T07:31:04.387Z,995.48
2023-02-22T07:36:48.254Z,995.52
2023-02-22T07:42:32.593Z,995.63
2023-02-22T07:48:18.410Z,995.65
2023-02-22T07:54:02.058Z,995.69
2023-02-22T07:59:45.970Z,995.66
2023-02-22T08:05:30.426Z,995.62
2023-02-22T08:11:14.499Z,995.63
2023-02-22T08:16:59.137Z,995.61
2023-02-22T08:22:43.411Z,995.55
2023-02-22T08:28:27.131Z,995.51
2023-02-22T08:34:11.556Z,995.41
2023-02-22T08:39:55.212Z,995.42
2023-02-22T08:45:39.024Z,995.44
2023-02-22T08:51:22.950Z,995.44
2023-02-22T08:57:09.312Z,995.31
2023-02-22T09:02:53.977Z,995.43
2023-02-22T09:08:37.815Z,995.44
2023-02-22T09:14:21.478Z,995.45
2023-02-22T09:20:05.932Z,995.44
2023-02-22T09:25:49.972Z,995.48
2023-02-22T09:31:35.439Z,995.45
2023-02-22T09:37:19.675Z,995.55
2023-02-22T09:43:10.836Z,995.43
2023-02-22T09:49:06.677Z,995.35
2023-02-22T09:54:53.236Z,995.45
2023-02-22T10:00:41.441Z,995.44
2023-02-22T10:06:25.976Z,995.39
2023-02-22T10:12:12.877Z,995.5
2023-02-22T10:18:02.168Z,995.48
2023-02-22T10:23:50.010Z,995.47
2023-02-22T10:29:39.132Z,995.42
2023-02-22T10:35:25.856Z,995.4
2023-02-22T10:41:18.422Z,995.37
2023-02-22T10:47:05.224Z,995.44
2023-02-22T10:52:49.914Z,995.46
2023-02-22T10:58:38.718Z,995.49
2023-02-22T11:04:24.127Z,995.45
2023-02-22T11:10:09.206Z,995.45
2023-02-22T11:15:53.897Z,995.41
2023-02-22T11:21:39.912Z,995.45
2023-02-22T11:27:30.861Z,995.48
2023-02-22T11:33:23.511Z,995.48
2023-02-22T11:39:12.826Z,995.5
2023-02-22T11:45:07.772Z,995.46
2023-02-22T11:50:58.995Z,995.45
2023-02-22T11:56:45.666Z,995.42
2023-02-22T12:02:56.814Z,995.44
2023-02-22T12:08:46.087Z,995.36
2023-02-22T12:14:35.169Z,995.35
2023-02-22T12:20:21.218Z,995.32
2023-02-22T12:26:09.164Z,995.34
2023-02-22T12:31:56.737Z,995.36
2023-02-22T12:37:50.180Z,995.42
2023-02-22T12:43:38.990Z,995.37
2023-02-22T12:49:26.808Z,995.44
2023-02-22T12:55:15.301Z,995.46
2023-02-22T13:01:07.297Z,995.48
2023-02-22T13:06:56.207Z,995.51
2023-02-22T13:12:47.116Z,995.57
2023-02-22T13:18:37.106Z,995.55
2023-02-22T13:24:24.730Z,995.52
2023-02-22T13:30:15.402Z,995.59
2023-02-22T13:36:16.463Z,995.57
2023-02-22T13:42:13.108Z,995.57
2023-02-22T13:48:11.753Z,995.56
2023-02-22T13:54:02.124Z,995.54
2023-02-22T13:59:47.432Z,995.63
2023-02-22T14:05:47.235Z,995.61
2023-02-22T14:11:51.350Z,995.56
2023-02-22T14:17:36.694Z,995.54
2023-02-22T14:23:35.621Z,995.53
2023-02-22T14:29:20.164Z,995.56
2023-02-22T14:35:24.354Z,995.55
2023-02-22T14:41:10.284Z,995.57
2023-02-22T14:46:57.528Z,995.57
2023-02-22T14:52:43.836Z,995.54
2023-02-22T14:58:34.592Z,995.49
2023-02-22T15:04:23.009Z,995.5
2023-02-22T15:10:14.726Z,995.53
2023-02-22T15:16:02.744Z,995.55
2023-02-22T15:21:49.860Z,995.54
2023-02-22T15:27:34.362Z,995.56
2023-02-22T15:33:20.929Z,995.51
2023-02-22T15:39:05.780Z,995.43
2023-02-22T15:44:50.463Z,995.42
2023-02-22T15:50:35.700Z,995.43
2023-02-22T15:56:24.373Z,995.57
2023-02-22T16:02:14.745Z,995.62
2023-02-22T16:07:58.964Z,995.66
2023-02-22T16:13:43.098Z,995.66
2023-02-22T16:19:30.507Z,995.73
2023-02-22T16:25:24.487Z,995.71
2023-02-22T16:31:09.837Z,995.69
2023-02-22T16:36:55.303Z,995.76
2023-02-22T16:42:39.042Z,995.77
2023-02-22T16:48:24.302Z,995.89
2023-02-22T16:54:10.424Z,995.96
2023-02-22T16:59:54.106Z,995.93
2023-02-22T17:05:40.071Z,995.96
2023-02-22T17:11:24.139Z,996.02
2023-02-22T17:17:08.087Z,996.02
2023-02-22T17:22:51.823Z,996.06
2023-02-22T17:28:35.531Z,996.11
2023-02-22T17:34:19.251Z,996.12
2023-02-22T17:40:03.026Z,996.22
2023-02-22T17:45:48.014Z,996.31
2023-02-22T17:51:31.737Z,996.32
2023-02-22T17:57:15.544Z,996.34
2023-02-22T18:03:00.086Z,996.38
2023-02-22T18:08:44.637Z,996.43
2023-02-22T18:14:28.363Z,996.4
2023-02-22T18:20:12.787Z,996.42
2023-02-22T18:26:10.973Z,996.43
2023-02-22T18:31:57.303Z,996.48
2023-02-22T18:37:41.147Z,996.46
2023-02-22T18:43:25.093Z,996.43
2023-02-22T18:49:11.284Z,996.4
2023-02-22T18:54:54.891Z,996.37
2023-02-22T19:00:38.868Z,996.35
2023-02-22T19:06:22.733Z,996.37
2023-02-22T19:12:07.164Z,996.35
2023-02-22T19:17:51.155Z,996.35
2023-02-22T19:23:37.008Z,996.39
2023-02-22T19:29:22.731Z,996.4
2023-02-22T19:35:06.634Z,996.42
2023-02-22T19:40:54.659Z,996.36
2023-02-22T19:46:38.866Z,996.32
2023-02-22T19:52:24.009Z,996.31
2023-02-22T19:58:07.933Z,996.33
2023-02-22T20:03:52.166Z,996.31
2023-02-22T20:09:36.535Z,996.31
2023-02-22T20:15:21.367Z,996.29
2023-02-22T20:21:06.588Z,996.3
2023-02-22T20:26:50.915Z,996.31
2023-02-22T20:32:35.773Z,996.3
2023-02-22T20:38:20.295Z,996.26
2023-02-22T20:44:05.327Z,996.32
2023-02-22T20:49:50.983Z,996.35
2023-02-22T20:55:34.918Z,996.39
2023-02-22T21:01:20.580Z,996.32
2023-02-22T21:07:07.035Z,996.34
2023-02-22T21:12:53.949Z,996.38
2023-02-22T21:18:42.389Z,996.45
2023-02-22T21:24:27.549Z,996.41
2023-02-22T21:30:12.440Z,996.43
2023-02-22T21:35:55.954Z,996.4
2023-02-22T21:41:41.700Z,996.41
2023-02-22T21:47:27.521Z,996.38
2023-02-22T21:53:11.102Z,996.4
2023-02-22T21:58:58.701Z,996.42
2023-02-22T22:04:42.480Z,996.37
2023-02-22T22:10:26.270Z,996.38
2023-02-22T22:16:11.295Z,996.36
2023-02-22T22:21:55.283Z,996.36
2023-02-22T22:27:38.932Z,996.34
2023-02-22T22:33:22.928Z,996.33
2023-02-22T22:39:06.678Z,996.35
2023-02-22T22:44:50.506Z,996.32
2023-02-22T22:50:34.242Z,996.37
2023-02-22T22:56:18.537Z,996.35
2023-02-22T23:02:02.234Z,996.38
2023-02-22T23:07:45.843Z,996.34
2023-02-22T23:13:29.486Z,996.32
2023-02-22T23:19:13.446Z,996.36
2023-02-22T23:24:58.506Z,996.4
2023-02-22T23:30:42.625Z,996.4
2023-02-22T23:36:27.203Z,996.45
2023-02-22T23:42:10.950Z,996.42
2023-02-22T23:47:56.192Z,996.46
2023-02-22T23:53:41.383Z,996.47
2023-02-22T23:59:25.403Z,996.45
